Time;durP1;ratioP1;P1;durP2;ratioP2;P2;SDS_P1;SDS_P2;PMS_P1;PMS_P2;Temp;Humidity;BMP_temperature;BMP_pressure;BME280_temperature;BME280_humidity;BME280_pressure;Samples;Min_cycle;Max_cycle;Signal;HPM_P1;HPM_P2
2022/04/11 00:01:24;;;;;;;8.00;2.87;;;2.30;99.90;;;;;;5065788;28;20044;-33
2022/04/11 00:03:50;;;;;;;6.00;2.80;;;2.30;99.90;;;;;;5065729;28;20562;-31
2022/04/11 00:06:16;;;;;;;6.40;2.73;;;2.30;99.90;;;;;;5044615;28;20037;-32
2022/04/11 00:08:42;;;;;;;7.13;3.13;;;2.30;99.90;;;;;;5044183;28;20095;-30
2022/04/11 00:11:07;;;;;;;11.37;3.30;;;2.30;99.90;;;;;;5049180;28;20072;-35
2022/04/11 00:13:33;;;;;;;9.40;3.07;;;2.20;99.90;;;;;;5044791;28;20479;-34
2022/04/11 00:15:59;;;;;;;9.60;2.90;;;2.20;99.90;;;;;;5046354;28;20443;-33
2022/04/11 00:18:25;;;;;;;4.90;2.80;;;2.30;99.90;;;;;;5029415;28;20049;-32
2022/04/11 00:20:52;;;;;;;5.67;2.97;;;2.20;99.90;;;;;;5044655;28;20036;-31
2022/04/11 00:23:18;;;;;;;5.43;2.60;;;2.20;99.90;;;;;;5045045;28;20124;-34
2022/04/11 00:25:44;;;;;;;8.13;2.80;;;2.20;99.90;;;;;;5045735;28;20404;-31
2022/04/11 00:28:10;;;;;;;5.40;3.00;;;2.10;99.90;;;;;;5029104;28;20037;-32
2022/04/11 00:30:36;;;;;;;7.77;3.03;;;2.00;99.90;;;;;;5053700;28;20054;-34
2022/04/11 00:33:02;;;;;;;5.27;3.20;;;2.00;99.90;;;;;;5064634;28;20461;-33
2022/04/11 00:35:28;;;;;;;9.17;3.23;;;2.00;99.90;;;;;;5060672;28;20036;-30
2022/04/11 00:37:53;;;;;;;4.83;3.40;;;1.90;99.90;;;;;;5046393;28;20044;-33
2022/04/11 00:40:19;;;;;;;9.13;3.97;;;1.80;99.90;;;;;;5065422;28;20203;-35
2022/04/11 00:42:51;;;;;;;6.93;3.50;;;1.70;99.90;;;;;;5064407;28;20087;-31
2022/04/11 00:45:17;;;;;;;7.67;3.57;;;1.70;99.90;;;;;;5063668;28;20052;-34
2022/04/11 00:47:45;;;;;;;6.73;3.73;;;1.60;99.90;;;;;;5048912;28;20484;-32
2022/04/11 00:50:13;;;;;;;6.70;3.23;;;1.60;99.90;;;;;;5064538;28;20072;-30
2022/04/11 00:52:44;;;;;;;7.60;3.20;;;1.50;99.90;;;;;;5064200;28;20044;-33
2022/04/11 00:55:09;;;;;;;7.60;3.75;;;1.50;99.90;;;;;;5065117;28;20503;-34
2022/04/11 00:57:35;;;;;;;6.37;2.90;;;1.40;99.90;;;;;;5048430;28;20051;-31
2022/04/11 01:00:03;;;;;;;7.67;3.20;;;1.30;99.90;;;;;;5065429;28;20036;-32
2022/04/11 01:02:29;;;;;;;6.13;3.47;;;1.30;99.90;;;;;;5062426;28;20048;-33
2022/04/11 01:04:55;;;;;;;5.37;3.43;;;1.30;99.90;;;;;;5064366;28;20059;-34
2022/04/11 01:07:20;;;;;;;9.23;3.90;;;1.30;99.90;;;;;;5028717;28;20049;-34
2022/04/11 01:09:46;;;;;;;6.80;3.80;;;1.30;99.90;;;;;;5055582;28;20045;-31
2022/04/11 01:12:15;;;;;;;8.60;3.73;;;1.20;99.90;;;;;;5044033;28;20045;-29
2022/04/11 01:14:41;;;;;;;4.47;3.13;;;1.20;99.90;;;;;;5044932;28;20036;-31
2022/04/11 01:17:08;;;;;;;7.37;3.50;;;1.20;99.90;;;;;;5028691;28;20053;-34
2022/04/11 01:19:34;;;;;;;6.10;3.00;;;1.10;99.90;;;;;;5044689;28;20099;-33
2022/04/11 01:21:59;;;;;;;7.73;3.43;;;1.00;99.90;;;;;;5043352;28;20408;-31
2022/04/11 01:24:25;;;;;;;4.27;2.70;;;1.00;99.90;;;;;;5043905;28;20037;-31
2022/04/11 01:26:51;;;;;;;5.23;3.13;;;1.00;99.90;;;;;;5011825;28;20048;-32
2022/04/11 01:29:18;;;;;;;4.67;3.07;;;1.00;99.90;;;;;;5043612;28;20408;-34
2022/04/11 01:31:44;;;;;;;6.47;3.07;;;0.90;99.90;;;;;;5044873;28;20074;-31
2022/04/11 01:34:09;;;;;;;4.70;3.20;;;0.90;99.90;;;;;;5043876;28;20347;-34
2022/04/11 01:36:36;;;;;;;4.60;2.80;;;0.90;99.90;;;;;;5031339;28;20582;-31
2022/04/11 01:39:02;;;;;;;6.40;3.20;;;0.80;99.90;;;;;;5042853;28;20069;-34
2022/04/11 01:41:28;;;;;;;6.53;3.30;;;0.80;99.90;;;;;;5043135;28;20111;-34
2022/04/11 01:43:53;;;;;;;7.20;3.93;;;0.80;99.90;;;;;;5043203;28;20248;-31
2022/04/11 01:46:19;;;;;;;10.87;4.87;;;0.70;99.90;;;;;;5034034;28;20052;-32
2022/04/11 01:48:45;;;;;;;16.60;8.93;;;0.70;99.90;;;;;;5043167;28;20079;-32
2022/04/11 01:51:13;;;;;;;15.17;8.27;;;0.70;99.90;;;;;;5061589;28;20091;-34
2022/04/11 01:53:39;;;;;;;13.13;7.43;;;0.60;99.90;;;;;;5063640;28;20041;-32
2022/04/11 01:56:05;;;;;;;17.20;7.90;;;0.60;99.90;;;;;;5063473;28;20067;-34
2022/04/11 01:58:31;;;;;;;11.33;7.60;;;0.70;99.90;;;;;;5031855;28;20039;-32
2022/04/11 02:00:58;;;;;;;11.97;5.80;;;0.60;99.90;;;;;;5064439;28;20040;-32
2022/04/11 02:03:25;;;;;;;9.83;5.93;;;0.50;99.90;;;;;;5066915;28;20048;-33
2022/04/11 02:05:51;;;;;;;8.20;5.27;;;0.50;99.90;;;;;;5059276;28;20048;-31
2022/04/11 02:08:16;;;;;;;8.97;5.00;;;0.50;99.90;;;;;;5036377;28;20040;-33
2022/04/11 02:10:42;;;;;;;9.13;4.97;;;0.50;99.90;;;;;;5054921;28;20049;-36
2022/04/11 02:13:08;;;;;;;10.03;4.60;;;0.50;99.90;;;;;;5047526;28;20124;-35
2022/04/11 02:15:34;;;;;;;8.07;4.63;;;0.50;99.90;;;;;;5048287;28;20048;-35
2022/04/11 02:18:00;;;;;;;8.00;4.37;;;0.50;99.90;;;;;;5031831;28;20449;-32
2022/04/11 02:20:26;;;;;;;7.50;4.20;;;0.40;99.90;;;;;;5048152;28;20211;-34
2022/04/11 02:22:57;;;;;;;8.03;4.50;;;0.50;99.90;;;;;;5047453;28;20068;-35
2022/04/11 02:25:34;;;;;;;5.10;3.25;;;0.40;99.90;;;;;;5048089;28;20476;-34
2022/04/11 02:28:00;;;;;;;7.43;3.70;;;0.40;99.90;;;;;;5030180;28;20359;-35
2022/04/11 02:30:26;;;;;;;7.80;3.90;;;0.40;99.90;;;;;;5047759;28;20045;-33
2022/04/11 02:32:53;;;;;;;5.00;3.63;;;0.40;99.90;;;;;;5047543;28;20040;-31
2022/04/11 02:35:19;;;;;;;6.20;3.77;;;0.40;99.90;;;;;;5047325;28;20068;-34
2022/04/11 02:37:46;;;;;;;9.07;3.47;;;0.30;99.90;;;;;;5014232;28;20049;-31
2022/04/11 02:40:12;;;;;;;5.00;3.47;;;0.30;99.90;;;;;;5047076;28;20435;-33
2022/04/11 02:42:42;;;;;;;8.53;3.50;;;0.30;99.90;;;;;;5047236;28;20492;-34
2022/04/11 02:45:09;;;;;;;5.43;2.93;;;0.30;99.90;;;;;;5046882;28;20095;-34
2022/04/11 02:47:35;;;;;;;5.73;3.37;;;0.30;99.90;;;;;;5043167;28;20160;-32
2022/04/11 02:50:00;;;;;;;6.43;3.40;;;0.30;99.90;;;;;;5066115;28;20499;-32
2022/04/11 02:52:28;;;;;;;7.40;3.70;;;0.20;99.90;;;;;;5066736;28;20551;-32
2022/04/11 02:54:54;;;;;;;5.33;3.20;;;0.20;99.90;;;;;;5067844;28;20044;-33
2022/04/11 02:57:20;;;;;;;7.57;3.27;;;0.20;99.90;;;;;;5051596;28;20521;-30
2022/04/11 02:59:46;;;;;;;5.47;3.13;;;0.20;99.90;;;;;;5066883;28;20040;-31
2022/04/11 03:02:11;;;;;;;6.53;3.17;;;0.10;99.90;;;;;;5065269;28;20067;-32
2022/04/11 03:04:37;;;;;;;7.73;3.40;;;0.20;99.90;;;;;;5067149;28;20036;-33
2022/04/11 03:07:03;;;;;;;6.87;3.27;;;0.10;99.90;;;;;;5031598;28;20076;-34
2022/04/11 03:09:28;;;;;;;5.03;2.93;;;0.10;99.90;;;;;;5053083;28;20120;-32
2022/04/11 03:11:54;;;;;;;8.20;3.47;;;0.10;99.90;;;;;;5047427;28;20570;-32
2022/04/11 03:14:20;;;;;;;6.53;3.37;;;0.10;99.90;;;;;;5044772;28;20436;-35
2022/04/11 03:16:45;;;;;;;6.60;2.87;;;0.10;99.90;;;;;;5032359;28;20055;-34
2022/04/11 03:19:11;;;;;;;5.30;2.70;;;0.10;99.90;;;;;;5044515;28;20072;-32
2022/04/11 03:21:36;;;;;;;7.60;3.20;;;0.10;99.90;;;;;;5045625;28;20079;-33
2022/04/11 03:24:02;;;;;;;5.53;3.20;;;0.10;99.90;;;;;;5027922;28;20041;-33
2022/04/11 03:26:28;;;;;;;5.60;3.23;;;0.10;99.90;;;;;;5033123;28;20597;-31
2022/04/11 03:28:54;;;;;;;7.00;3.33;;;0.10;99.90;;;;;;5043068;28;20052;-30
2022/04/11 03:31:19;;;;;;;7.83;3.53;;;0.10;99.90;;;;;;5046612;28;20048;-34
2022/04/11 03:33:45;;;;;;;6.57;3.07;;;0.10;99.90;;;;;;5044830;28;20119;-35
2022/04/11 03:36:11;;;;;;;7.90;3.33;;;0.10;99.90;;;;;;5036704;28;20160;-32
2022/04/11 03:38:37;;;;;;;8.10;3.00;;;0.20;99.90;;;;;;5039364;28;20059;-33
2022/04/11 03:41:03;;;;;;;8.70;3.00;;;0.20;99.90;;;;;;5045094;28;20419;-34
2022/04/11 03:43:29;;;;;;;5.77;2.90;;;0.20;99.90;;;;;;5044245;28;20045;-32
2022/04/11 03:45:55;;;;;;;8.30;3.40;;;0.20;99.90;;;;;;5045899;28;20508;-30
2022/04/11 03:48:21;;;;;;;11.27;3.13;;;0.20;99.90;;;;;;5048460;28;20040;-34
2022/04/11 03:50:46;;;;;;;5.20;2.90;;;0.30;99.90;;;;;;5064736;28;20084;-34
2022/04/11 03:53:12;;;;;;;5.70;3.00;;;0.30;99.90;;;;;;5064004;28;20056;-34
2022/04/11 03:55:38;;;;;;;7.97;3.20;;;0.30;99.90;;;;;;5064745;28;20051;-31
2022/04/11 03:58:04;;;;;;;6.90;2.87;;;0.30;99.90;;;;;;5050160;28;20189;-31
2022/04/11 04:00:30;;;;;;;4.83;2.60;;;0.40;99.90;;;;;;5065476;28;20190;-33
2022/04/11 04:03:10;;;;;;;6.67;2.77;;;0.40;99.90;;;;;;5065634;28;20040;-33
2022/04/11 04:05:43;;;;;;;7.67;2.70;;;0.50;99.90;;;;;;5055327;28;20049;-34
2022/04/11 04:08:10;;;;;;;5.90;2.67;;;0.50;99.90;;;;;;5030114;28;20257;-31
2022/04/11 04:10:35;;;;;;;6.60;2.60;;;0.50;99.90;;;;;;5052261;28;20072;-33
2022/04/11 04:13:02;;;;;;;8.03;3.17;;;0.50;99.90;;;;;;5054105;28;20072;-34
2022/04/11 04:15:28;;;;;;;6.50;2.70;;;0.50;99.90;;;;;;5062884;28;20037;-33
2022/04/11 04:17:55;;;;;;;7.97;2.40;;;0.60;99.90;;;;;;5048425;28;20040;-32
2022/04/11 04:20:21;;;;;;;6.33;3.00;;;0.60;99.90;;;;;;5065836;28;20048;-33
2022/04/11 04:22:46;;;;;;;8.57;3.10;;;0.60;99.90;;;;;;5064573;28;20058;-31
2022/04/11 04:25:12;;;;;;;4.00;2.43;;;0.60;99.90;;;;;;5065463;28;20040;-34
2022/04/11 04:27:38;;;;;;;8.30;2.90;;;0.60;99.90;;;;;;5048195;28;20128;-34
2022/04/11 04:30:07;;;;;;;7.17;2.80;;;0.70;99.90;;;;;;5064218;28;20044;-31
2022/04/11 04:32:33;;;;;;;6.67;2.43;;;0.70;99.90;;;;;;5064106;28;20053;-33
2022/04/11 04:34:59;;;;;;;6.07;2.83;;;0.70;99.90;;;;;;5063828;28;20055;-32
2022/04/11 04:37:25;;;;;;;9.00;2.43;;;0.70;99.90;;;;;;5049219;28;20681;-34
2022/04/11 04:39:51;;;;;;;6.90;2.93;;;0.80;99.90;;;;;;5065845;28;20048;-33
2022/04/11 04:42:26;;;;;;;6.83;2.90;;;0.70;99.90;;;;;;5064601;28;20040;-31
2022/04/11 04:44:51;;;;;;;5.87;2.80;;;0.80;99.90;;;;;;5065345;28;20061;-34
2022/04/11 04:47:17;;;;;;;7.07;2.70;;;0.80;99.90;;;;;;5047528;28;20043;-34
2022/04/11 04:49:44;;;;;;;9.50;3.03;;;0.90;99.90;;;;;;5065045;28;20459;-32
2022/04/11 04:52:10;;;;;;;8.83;2.83;;;0.90;99.90;;;;;;5064495;28;20466;-33
2022/04/11 04:54:36;;;;;;;10.30;3.40;;;0.90;99.90;;;;;;5062422;28;20079;-33
2022/04/11 04:57:02;;;;;;;7.40;3.33;;;0.90;99.90;;;;;;5029752;28;20044;-34
2022/04/11 04:59:28;;;;;;;8.20;2.73;;;1.00;99.90;;;;;;5043523;28;20076;-35
2022/04/11 05:01:54;;;;;;;8.83;3.03;;;1.00;99.90;;;;;;5045088;28;20076;-34
2022/04/11 05:04:20;;;;;;;4.63;2.73;;;1.00;99.90;;;;;;5043364;28;20057;-34
2022/04/11 05:06:46;;;;;;;10.57;3.10;;;1.00;99.90;;;;;;5029788;28;20061;-33
2022/04/11 05:09:11;;;;;;;9.13;2.90;;;1.10;99.90;;;;;;5052651;28;20068;-33
2022/04/11 05:11:37;;;;;;;7.60;3.30;;;1.10;99.90;;;;;;5063971;28;20051;-33
2022/04/11 05:14:03;;;;;;;6.27;3.10;;;1.10;99.90;;;;;;5058819;28;20040;-33
2022/04/11 05:16:28;;;;;;;7.73;3.43;;;1.20;99.90;;;;;;5050472;28;20109;-31
2022/04/11 05:18:54;;;;;;;8.77;2.63;;;1.20;99.90;;;;;;5051032;28;20051;-30
2022/04/11 05:21:20;;;;;;;7.40;2.97;;;1.20;99.90;;;;;;5043332;28;20132;-31
2022/04/11 05:23:46;;;;;;;7.03;3.10;;;1.20;99.90;;;;;;5056790;28;20098;-33
2022/04/11 05:26:12;;;;;;;6.47;3.00;;;1.20;99.90;;;;;;5054745;28;20041;-33
2022/04/11 05:28:37;;;;;;;8.77;2.80;;;1.20;99.90;;;;;;5058011;28;20105;-34
2022/04/11 05:31:03;;;;;;;8.77;3.07;;;1.30;99.90;;;;;;5064559;28;20472;-31
2022/04/11 05:33:29;;;;;;;7.93;3.23;;;1.30;99.90;;;;;;5063697;28;20537;-31
2022/04/11 05:35:56;;;;;;;10.83;2.90;;;1.40;99.90;;;;;;5062935;28;20087;-34
2022/04/11 05:38:22;;;;;;;7.20;2.90;;;1.40;99.90;;;;;;5048554;28;20075;-32
2022/04/11 05:40:48;;;;;;;9.33;2.90;;;1.40;99.90;;;;;;5064936;28;20119;-33
2022/04/11 05:43:14;;;;;;;7.03;2.37;;;1.50;99.90;;;;;;5063568;28;20159;-31
2022/04/11 05:45:43;;;;;;;5.93;3.07;;;1.50;99.90;;;;;;5064306;28;20502;-30
2022/04/11 05:48:09;;;;;;;9.80;3.10;;;1.50;99.90;;;;;;5047636;28;20124;-35
2022/04/11 05:50:35;;;;;;;7.47;3.00;;;1.60;99.90;;;;;;5064885;28;20301;-31
2022/04/11 05:53:01;;;;;;;8.13;2.90;;;1.60;99.90;;;;;;5063777;28;20048;-34
2022/04/11 05:55:28;;;;;;;6.20;2.87;;;1.70;99.90;;;;;;5064348;28;20203;-30
2022/04/11 05:57:54;;;;;;;6.10;2.80;;;1.70;99.90;;;;;;5046659;28;20128;-32
2022/04/11 06:00:20;;;;;;;5.43;3.00;;;1.70;99.90;;;;;;5055123;28;20547;-35
2022/04/11 06:02:46;;;;;;;10.00;3.23;;;1.80;99.90;;;;;;5060210;28;20044;-35
2022/04/11 06:05:12;;;;;;;11.27;3.30;;;1.80;99.90;;;;;;5061377;28;20527;-32
2022/04/11 06:07:38;;;;;;;6.80;3.03;;;1.90;99.90;;;;;;5038804;28;20037;-34
2022/04/11 06:10:05;;;;;;;9.03;3.23;;;1.90;99.90;;;;;;5054285;28;20403;-30
2022/04/11 06:12:31;;;;;;;8.77;3.07;;;1.90;99.90;;;;;;5047042;28;20044;-31
2022/04/11 06:14:58;;;;;;;5.50;2.83;;;2.00;99.90;;;;;;5055771;28;20056;-36
2022/04/11 06:17:24;;;;;;;7.87;3.30;;;1.90;99.90;;;;;;5046694;28;20060;-35
2022/04/11 06:19:55;;;;;;;6.40;3.87;;;2.10;99.90;;;;;;5062797;28;20667;-33
2022/04/11 06:22:21;;;;;;;7.70;3.70;;;2.10;99.90;;;;;;5062095;28;20111;-32
2022/04/11 06:24:48;;;;;;;8.53;3.57;;;2.10;99.90;;;;;;5062032;28;20286;-35
2022/04/11 06:27:14;;;;;;;7.57;3.40;;;2.20;99.90;;;;;;5046662;28;20518;-32
2022/04/11 06:29:40;;;;;;;7.50;3.70;;;2.20;99.90;;;;;;5063195;28;20068;-35
2022/04/11 06:32:06;;;;;;;8.77;3.80;;;2.30;99.90;;;;;;5063386;28;20088;-31
2022/04/11 06:34:33;;;;;;;9.40;3.77;;;2.40;99.90;;;;;;5043456;28;20048;-32
2022/04/11 06:36:58;;;;;;;7.90;3.77;;;2.40;99.90;;;;;;5032153;28;20106;-32
2022/04/11 06:39:24;;;;;;;10.73;3.83;;;2.50;99.90;;;;;;5048987;28;20052;-32
2022/04/11 06:41:50;;;;;;;6.77;3.90;;;2.50;99.90;;;;;;5050544;28;20059;-35
2022/04/11 06:44:15;;;;;;;8.03;3.73;;;2.60;99.90;;;;;;5044662;28;20513;-35
2022/04/11 06:46:41;;;;;;;5.67;3.80;;;2.60;99.90;;;;;;5037118;28;20565;-34
2022/04/11 06:49:07;;;;;;;6.90;4.67;;;2.70;99.90;;;;;;5042958;28;20546;-33
2022/04/11 06:51:33;;;;;;;8.77;4.33;;;2.70;99.90;;;;;;5052801;28;20041;-35
2022/04/11 06:53:59;;;;;;;7.13;4.00;;;2.80;99.90;;;;;;5052800;28;20041;-35
2022/04/11 06:56:25;;;;;;;9.73;4.67;;;2.90;99.90;;;;;;5040683;28;20056;-32
2022/04/11 06:58:51;;;;;;;7.67;4.50;;;3.00;99.90;;;;;;5047651;28;20562;-33
2022/04/11 07:01:17;;;;;;;10.63;4.90;;;3.10;99.90;;;;;;5045593;28;20071;-34
2022/04/11 07:03:42;;;;;;;10.13;4.83;;;3.10;99.90;;;;;;5054768;28;20041;-35
2022/04/11 07:06:10;;;;;;;8.83;4.70;;;3.20;99.90;;;;;;5049567;28;20040;-32
2022/04/11 07:08:36;;;;;;;9.53;4.53;;;3.30;99.90;;;;;;5049171;28;20048;-35
2022/04/11 07:11:02;;;;;;;11.30;5.63;;;3.40;99.90;;;;;;5057704;28;20151;-33
2022/04/11 07:13:27;;;;;;;13.57;5.80;;;3.50;99.90;;;;;;5048695;28;20124;-35
2022/04/11 07:15:53;;;;;;;10.43;5.27;;;3.60;99.90;;;;;;5054904;28;20052;-35
2022/04/11 07:18:25;;;;;;;10.07;5.33;;;3.80;99.90;;;;;;5033705;28;20534;-34
2022/04/11 07:20:52;;;;;;;12.20;5.57;;;3.80;99.90;;;;;;5051532;28;20041;-33
2022/04/11 07:23:18;;;;;;;15.53;5.40;;;4.00;99.90;;;;;;5055106;28;20578;-35
2022/04/11 07:25:44;;;;;;;10.07;4.90;;;4.10;99.90;;;;;;5049839;28;20742;-34
2022/04/11 07:28:10;;;;;;;10.93;5.60;;;4.10;99.90;;;;;;5035193;28;20045;-31
2022/04/11 07:30:36;;;;;;;11.30;5.47;;;4.10;99.90;;;;;;5051541;28;20391;-33
2022/04/11 07:33:01;;;;;;;14.43;5.13;;;4.20;99.90;;;;;;5047788;28;20048;-34
2022/04/11 07:35:27;;;;;;;11.47;5.17;;;4.30;99.90;;;;;;5047674;28;20040;-33
2022/04/11 07:37:53;;;;;;;6.53;4.17;;;4.40;99.90;;;;;;5037396;28;20125;-33
2022/04/11 07:40:19;;;;;;;8.87;3.80;;;4.50;99.90;;;;;;5052138;28;20040;-33
2022/04/11 07:42:45;;;;;;;9.50;4.33;;;4.60;99.90;;;;;;5049808;28;20119;-31
2022/04/11 07:45:11;;;;;;;8.07;3.60;;;4.70;99.90;;;;;;5050297;28;20433;-33
2022/04/11 07:47:37;;;;;;;7.03;3.00;;;4.80;99.90;;;;;;5034851;28;20044;-33
2022/04/11 07:50:03;;;;;;;8.83;3.40;;;4.90;99.90;;;;;;5047882;28;20045;-33
2022/04/11 07:52:29;;;;;;;8.80;2.80;;;5.00;99.90;;;;;;5033780;28;20547;-32
2022/04/11 07:54:55;;;;;;;8.13;3.17;;;5.10;99.90;;;;;;5048655;28;20044;-30
2022/04/11 07:57:21;;;;;;;8.17;2.87;;;5.20;99.90;;;;;;5035006;28;20049;-35
2022/04/11 07:59:47;;;;;;;10.97;3.23;;;5.30;99.90;;;;;;5048093;28;20075;-33
2022/04/11 08:02:12;;;;;;;8.47;3.20;;;5.40;99.90;;;;;;5050511;28;20051;-31
2022/04/11 08:04:38;;;;;;;6.20;2.30;;;5.50;99.90;;;;;;5047632;28;20156;-35
2022/04/11 08:07:04;;;;;;;11.00;2.80;;;5.50;99.90;;;;;;5032720;28;20454;-31
2022/04/11 08:09:30;;;;;;;7.43;3.00;;;5.60;99.90;;;;;;5052558;28;20037;-35
2022/04/11 08:11:56;;;;;;;8.27;2.73;;;5.60;99.90;;;;;;5050364;28;20128;-34
2022/04/11 08:14:21;;;;;;;6.43;2.50;;;5.80;99.90;;;;;;5048800;28;20183;-34
2022/04/11 08:16:48;;;;;;;10.80;2.73;;;5.90;99.90;;;;;;5036483;28;20110;-32
2022/04/11 08:19:13;;;;;;;8.83;2.40;;;6.00;99.90;;;;;;5050882;28;20512;-32
2022/04/11 08:21:39;;;;;;;7.87;2.70;;;6.10;99.90;;;;;;5050107;28;20115;-32
2022/04/11 08:24:05;;;;;;;7.53;2.73;;;6.20;99.90;;;;;;5048605;28;20198;-35
2022/04/11 08:26:31;;;;;;;8.07;2.70;;;6.30;99.90;;;;;;5037348;28;20175;-33
2022/04/11 08:28:57;;;;;;;6.23;2.10;;;6.30;99.90;;;;;;5049015;28;20128;-35
2022/04/11 08:31:22;;;;;;;6.47;2.27;;;6.40;99.90;;;;;;5051037;28;20086;-34
2022/04/11 08:33:48;;;;;;;10.10;2.30;;;6.50;99.90;;;;;;5042363;28;20053;-32
2022/04/11 08:36:14;;;;;;;8.60;2.10;;;6.60;99.90;;;;;;5039875;28;20701;-35
2022/04/11 08:38:39;;;;;;;5.80;2.20;;;6.70;99.90;;;;;;5044403;28;20075;-33
2022/04/11 08:41:13;;;;;;;4.03;1.90;;;6.80;99.90;;;;;;5049531;28;20480;-33
2022/04/11 08:43:39;;;;;;;6.53;1.87;;;6.90;99.90;;;;;;5046690;28;20048;-32
2022/04/11 08:46:06;;;;;;;9.67;2.17;;;7.00;99.90;;;;;;5049130;28;20534;-35
2022/04/11 08:48:32;;;;;;;4.37;1.97;;;7.10;99.90;;;;;;5035350;28;20040;-32
2022/04/11 08:50:59;;;;;;;6.37;2.10;;;7.10;99.90;;;;;;5045955;28;20041;-35
2022/04/11 08:53:25;;;;;;;4.23;1.77;;;7.20;99.90;;;;;;5050526;28;20040;-31
2022/04/11 08:55:51;;;;;;;10.00;2.00;;;7.40;99.90;;;;;;5049967;28;20048;-31
2022/04/11 08:58:17;;;;;;;6.37;2.00;;;7.40;99.90;;;;;;5034983;28;20052;-32
2022/04/11 09:00:43;;;;;;;5.63;1.70;;;7.50;99.90;;;;;;5043834;28;20838;-33
2022/04/11 09:03:09;;;;;;;6.00;1.73;;;7.60;99.90;;;;;;5047237;28;20045;-33
2022/04/11 09:05:35;;;;;;;9.03;2.07;;;7.70;99.90;;;;;;5046781;28;20036;-35
2022/04/11 09:08:01;;;;;;;6.03;1.77;;;7.70;99.90;;;;;;5032057;28;20052;-31
2022/04/11 09:10:27;;;;;;;5.80;1.40;;;7.80;99.90;;;;;;5043624;28;20122;-33
2022/04/11 09:12:55;;;;;;;7.10;2.00;;;7.90;99.90;;;;;;5048448;28;20390;-32
2022/04/11 09:15:23;;;;;;;4.83;1.70;;;8.00;99.90;;;;;;5051662;28;20127;-34
2022/04/11 09:17:49;;;;;;;7.23;2.00;;;8.00;99.90;;;;;;5027732;28;20048;-35
2022/04/11 09:20:21;;;;;;;4.30;1.50;;;8.30;99.90;;;;;;5048632;28;20106;-32
2022/04/11 09:22:48;;;;;;;3.90;1.50;;;8.30;99.90;;;;;;5050303;28;20041;-34
2022/04/11 09:25:19;;;;;;;6.47;1.23;;;8.30;99.90;;;;;;5048568;28;20159;-34
2022/04/11 09:27:46;;;;;;;4.50;1.30;;;8.40;99.90;;;;;;5034209;28;20056;-34
2022/04/11 09:30:28;;;;;;;4.27;1.60;;;8.50;99.90;;;;;;5047278;28;20087;-33
2022/04/11 09:32:57;;;;;;;5.37;1.87;;;8.60;99.90;;;;;;5047401;28;20456;-35
2022/04/11 09:35:27;;;;;;;8.27;1.93;;;8.60;99.90;;;;;;5047790;28;20053;-35
2022/04/11 09:38:12;;;;;;;9.27;2.00;;;8.70;99.90;;;;;;5036194;28;20130;-32
2022/04/11 09:40:40;;;;;;;4.43;1.50;;;8.80;99.90;;;;;;5049817;28;20063;-33
2022/04/11 09:43:08;;;;;;;6.37;1.70;;;8.90;99.90;;;;;;5046520;28;20041;-34
2022/04/11 09:45:43;;;;;;;6.77;2.00;;;8.90;99.90;;;;;;5049106;28;20087;-31
2022/04/11 09:48:09;;;;;;;5.17;1.77;;;9.00;99.90;;;;;;5028799;28;20504;-34
2022/04/11 09:50:35;;;;;;;5.93;1.73;;;9.00;99.90;;;;;;5045811;28;20389;-35
2022/04/11 09:53:13;;;;;;;4.30;1.60;;;9.10;99.90;;;;;;5049363;28;20055;-35
2022/04/11 09:55:39;;;;;;;5.40;1.47;;;9.10;99.90;;;;;;5047363;28;20130;-33
2022/04/11 09:58:06;;;;;;;4.93;1.60;;;9.10;99.90;;;;;;5031913;28;20415;-35
2022/04/11 10:00:39;;;;;;;4.53;1.77;;;9.20;99.90;;;;;;5055728;28;20056;-33
2022/04/11 10:03:05;;;;;;;6.27;1.77;;;9.30;99.90;;;;;;5048499;28;20117;-31
2022/04/11 10:05:35;;;;;;;3.10;1.63;;;9.30;99.90;;;;;;5048453;28;20045;-34
2022/04/11 10:08:07;;;;;;;4.93;1.83;;;9.40;99.90;;;;;;5030103;28;20044;-33
2022/04/11 10:10:38;;;;;;;;;;;9.50;99.90;;;;;;5047808;28;20056;-35
2022/04/11 10:13:06;;;;;;;4.88;1.55;;;9.50;99.90;;;;;;5044526;28;19921;-32
2022/04/11 10:15:33;;;;;;;4.77;1.87;;;9.60;99.90;;;;;;5047666;28;20098;-33
2022/04/11 10:17:59;;;;;;;5.00;1.80;;;9.70;99.90;;;;;;5031485;28;20045;-34
2022/04/11 10:20:30;;;;;;;5.97;1.80;;;9.80;99.90;;;;;;5047696;28;20039;-33
2022/04/11 10:23:16;;;;;;;6.53;2.30;;;9.90;99.90;;;;;;5051532;28;20067;-35
2022/04/11 10:25:47;;;;;;;7.30;2.10;;;10.00;99.90;;;;;;5068605;28;20041;-32
2022/04/11 10:28:13;;;;;;;;;;;10.00;99.90;;;;;;5049575;28;20052;-35
2022/04/11 10:30:39;;;;;;;7.63;2.27;;;10.20;99.90;;;;;;5066762;28;20104;-33
2022/04/11 10:33:05;;;;;;;5.13;2.07;;;10.30;99.90;;;;;;5067169;28;20617;-33
2022/04/11 10:35:43;;;;;;;5.70;2.10;;;10.40;99.90;;;;;;5068435;28;20051;-34
2022/04/11 10:38:13;;;;;;;7.10;2.30;;;10.40;99.90;;;;;;5052150;28;20046;-32
2022/04/11 10:40:48;;;;;;;5.77;2.27;;;10.50;99.90;;;;;;5059379;28;20056;-35
2022/04/11 10:43:16;;;;;;;5.73;2.40;;;10.60;99.90;;;;;;5062514;28;20037;-35
2022/04/11 10:46:03;;;;;;;6.37;2.50;;;10.60;99.90;;;;;;5066585;28;20083;-32
2022/04/11 10:48:59;;;;;;;8.00;2.53;;;10.70;99.90;;;;;;5050317;28;20045;-33
2022/04/11 10:51:24;;;;;;;7.67;2.30;;;10.80;99.90;;;;;;5064230;28;20079;-31
2022/04/11 10:54:19;;;;;;;6.13;2.53;;;10.90;99.90;;;;;;5065561;28;20080;-32
2022/04/11 10:56:52;;;;;;;4.57;2.07;;;11.00;99.90;;;;;;5052162;28;20040;-35
2022/04/11 10:59:29;;;;;;;4.67;1.83;;;11.10;99.90;;;;;;5066054;28;20516;-33
2022/04/11 11:01:56;;;;;;;4.15;2.20;;;11.20;99.90;;;;;;5078708;28;20049;-34
2022/04/11 11:04:26;;;;;;;5.22;2.30;;;11.30;99.90;;;;;;5056698;28;20055;-34
2022/04/11 11:07:26;;;;;;;6.80;2.33;;;11.30;99.90;;;;;;5033452;28;20318;-36
2022/04/11 11:09:57;;;;;;;6.63;2.20;;;11.40;99.90;;;;;;5053011;28;20095;-33
2022/04/11 11:12:24;;;;;;;5.47;2.38;;;11.40;99.90;;;;;;5049757;28;20048;-33
2022/04/11 11:14:49;;;;;;;7.10;2.03;;;11.60;99.90;;;;;;5057952;28;20056;-35
2022/04/11 11:17:15;;;;;;;5.60;2.40;;;11.50;99.90;;;;;;5046676;28;20060;-33
2022/04/11 11:20:04;;;;;;;7.70;2.53;;;11.60;99.90;;;;;;5066358;28;20040;-34
2022/04/11 11:23:18;;;;;;;4.78;2.80;;;11.70;99.90;;;;;;5065829;28;20040;-35
2022/04/11 11:25:44;;;;;;;5.75;2.47;;;11.80;99.90;;;;;;5064929;28;20128;-31
2022/04/11 11:28:12;;;;;;;6.63;2.60;;;11.80;99.90;;;;;;5050508;28;20144;-33
2022/04/11 11:30:38;;;;;;;6.22;2.90;;;11.80;99.90;;;;;;5066711;28;20035;-35
2022/04/11 11:33:08;;;;;;;5.60;2.58;;;11.90;99.90;;;;;;5064103;28;20053;-35
2022/04/11 11:35:33;;;;;;;8.88;2.90;;;11.90;99.90;;;;;;5064501;28;20055;-35
2022/04/11 11:38:05;;;;;;;5.80;2.58;;;11.90;99.90;;;;;;5051346;28;20040;-32
2022/04/11 11:40:31;;;;;;;4.82;2.42;;;12.00;99.90;;;;;;5066477;28;20102;-35
2022/04/11 11:42:57;;;;;;;6.63;2.80;;;12.00;99.90;;;;;;5064626;28;20036;-33
2022/04/11 11:45:27;;;;;;;6.88;3.00;;;12.00;99.90;;;;;;5066542;28;20398;-32
2022/04/11 11:47:53;;;;;;;8.13;3.00;;;12.10;99.90;;;;;;5049239;28;20486;-33
2022/04/11 11:50:19;;;;;;;6.45;2.65;;;12.10;99.90;;;;;;5066112;28;20052;-35
2022/04/11 11:52:57;;;;;;;6.15;2.90;;;12.20;99.90;;;;;;5065798;28;20052;-33
2022/04/11 11:55:23;;;;;;;5.75;2.65;;;12.30;99.90;;;;;;5066225;28;20076;-35
2022/04/11 11:58:05;;;;;;;3.67;2.45;;;12.40;99.90;;;;;;5050659;28;20159;-32
2022/04/11 12:00:34;;;;;;;4.07;2.45;;;12.50;99.90;;;;;;5066100;28;20045;-33
2022/04/11 12:05:44;;;;;;;7.05;3.03;;;12.50;99.90;;;;;;5055726;28;20512;-35
2022/04/11 12:08:17;;;;;;;7.43;2.88;;;12.50;99.90;;;;;;5030349;28;20056;-33
2022/04/11 12:10:44;;;;;;;9.95;2.80;;;12.60;99.90;;;;;;5049846;28;20204;-35
2022/04/11 12:13:11;;;;;;;6.05;2.63;;;12.60;99.90;;;;;;5046018;28;20060;-34
2022/04/11 12:15:37;;;;;;;8.50;2.70;;;12.70;99.90;;;;;;5045782;28;20124;-35
2022/04/11 12:18:08;;;;;;;6.47;3.03;;;12.80;99.90;;;;;;5030103;28;20052;-34
2022/04/11 12:20:34;;;;;;;4.93;2.60;;;12.80;99.90;;;;;;5043944;28;20041;-35
2022/04/11 12:23:02;;;;;;;7.47;2.35;;;12.90;99.90;;;;;;5045265;28;20245;-35
2022/04/11 12:25:30;;;;;;;9.10;2.50;;;12.90;99.90;;;;;;5045851;28;20040;-35
2022/04/11 12:28:18;;;;;;;5.15;2.70;;;13.00;99.90;;;;;;5030020;28;20467;-34
2022/04/11 12:30:49;;;;;;;5.97;2.50;;;13.00;99.90;;;;;;5059830;28;20292;-36
2022/04/11 12:33:35;;;;;;;5.10;2.60;;;13.10;99.90;;;;;;5063756;28;20291;-34
2022/04/11 12:36:05;;;;;;;8.70;2.95;;;13.10;99.90;;;;;;5065466;28;20395;-35
2022/04/11 12:38:55;;;;;;;5.63;2.83;;;13.20;99.90;;;;;;5051367;28;20040;-33
2022/04/11 12:41:23;;;;;;;5.07;2.35;;;13.40;99.90;;;;;;5065340;28;20051;-34
2022/04/11 12:44:01;;;;;;;5.20;2.70;;;13.40;99.90;;;;;;5064617;28;20131;-35
2022/04/11 12:46:27;;;;;;;5.97;2.83;;;13.50;99.90;;;;;;5052845;28;20946;-36
2022/04/11 12:48:56;;;;;;;5.07;3.00;;;13.60;99.90;;;;;;5060118;28;20053;-34
2022/04/11 12:51:23;;;;;;;7.05;2.75;;;13.60;99.90;;;;;;5065239;28;20387;-35
2022/04/11 12:53:49;;;;;;;4.55;2.65;;;13.60;99.90;;;;;;5064073;28;20049;-34
2022/04/11 12:56:15;;;;;;;3.80;2.35;;;13.70;99.90;;;;;;5055994;28;20108;-35
2022/04/11 12:58:40;;;;;;;5.28;2.53;;;13.70;99.90;;;;;;5058332;28;20036;-35
2022/04/11 13:01:06;;;;;;;6.00;2.80;;;13.70;99.90;;;;;;5065105;28;20365;-34